»·PEaware :: N101JP KNZY-KNTD

N101JP :: KNZY-KNTD

FLIGHT INFORMATION

Flight Status: Arrived
Operator: Privately registered:
United States
More flights under this callsign
Pilot: James T. (870)
Aircraft: PILATUS PC-12 EAGLE
(PC12)
More flights by this aircraft type
Origin: KNZY North Island NAS
United States
Destination: KNTD Point Mugu NAS
United States
More flights between these airports :: More routes between these airports
Route: +MZB293 V27 SXC V208 VTU
File this flight plan on PilotEdge
Remarks:
Altitude:
(Current/Filed)
80ft
Speed:
(Current/Filed)
200kts
Departed: 08-Mar-15 04:52 PM
Arrived: 08-Mar-15 05:47 PM
Distance/Time
Traveled:
128nm/0:55
Distance/Time
To Go:
Arrived

Flight Plot

Page will automatically refresh every two minutes.

Flight plan parsing failed; only flown route is shown


Map Options




Map Legend


Flown Route
Filed Route
Departure Airport
Arrival Airport
Navaid (VOR, NDB)
Fix

Horizontal Profiles

Position Reports

Time Latitude Longitude Heading Altitude Ground
Speed
08-Mar-15 16:29 32.708754 -117.209468 307 32ft 0kts
08-Mar-15 16:30 32.708754 -117.209468 307 32ft 0kts
08-Mar-15 16:31 32.708754 -117.209468 307 32ft 0kts
08-Mar-15 16:32 32.708754 -117.209468 307 32ft 0kts
08-Mar-15 16:33 32.708754 -117.209468 307 32ft 0kts
08-Mar-15 16:34 32.708754 -117.209468 307 32ft 0kts
08-Mar-15 16:35 32.708754 -117.209468 307 32ft 0kts
08-Mar-15 16:36 32.708754 -117.209468 307 32ft 0kts
08-Mar-15 16:37 32.708754 -117.209468 307 32ft 0kts
08-Mar-15 16:38 32.708754 -117.209468 307 32ft 0kts
08-Mar-15 16:39 32.708754 -117.209468 307 32ft 0kts
08-Mar-15 16:40 32.708754 -117.209468 307 32ft 0kts
08-Mar-15 16:41 32.708754 -117.209468 307 32ft 0kts
08-Mar-15 16:42 32.708754 -117.209468 307 32ft 0kts
08-Mar-15 16:43 32.708754 -117.209468 307 32ft 0kts
08-Mar-15 16:44 32.708861 -117.210481 263 32ft 7kts
08-Mar-15 16:45 32.708810 -117.211406 269 32ft 1kts
08-Mar-15 16:46 32.697490 -117.215679 195 244ft 118kts
08-Mar-15 16:47 32.656270 -117.227550 193 1743ft 162kts
08-Mar-15 16:48 32.612237 -117.239828 193 3451ft 164kts
08-Mar-15 16:49 32.594812 -117.210115 33 5029ft 166kts
08-Mar-15 16:50 32.638711 -117.209950 354 6636ft 163kts
08-Mar-15 16:51 32.683218 -117.215447 353 7993ft 174kts
08-Mar-15 16:52 32.738928 -117.222955 353 8028ft 224kts
08-Mar-15 16:53 32.800535 -117.236109 334 7990ft 236kts
08-Mar-15 16:54 32.830235 -117.298828 314 8013ft 237kts
08-Mar-15 16:55 32.869929 -117.359275 311 8008ft 237kts
08-Mar-15 16:56 32.911525 -117.417721 310 8008ft 237kts
08-Mar-15 16:57 32.950863 -117.479143 306 8005ft 236kts
08-Mar-15 16:58 32.989309 -117.540379 306 8003ft 235kts
08-Mar-15 16:59 33.027978 -117.600470 310 7999ft 234kts
08-Mar-15 17:00 33.068300 -117.658071 309 7999ft 233kts
08-Mar-15 17:01 33.108451 -117.715379 309 8019ft 233kts
08-Mar-15 17:01 33.141957 -117.763046 309 8019ft 233kts
08-Mar-15 17:02 33.181344 -117.821087 307 8017ft 233kts
08-Mar-15 17:03 33.220694 -117.880537 306 8019ft 233kts
08-Mar-15 17:04 33.259715 -117.939629 306 8029ft 233kts
08-Mar-15 17:05 33.297974 -117.997314 306 8038ft 233kts
08-Mar-15 17:06 33.326173 -118.060279 271 8044ft 229kts
08-Mar-15 17:07 33.335631 -118.132937 278 8046ft 229kts
08-Mar-15 17:08 33.346122 -118.208375 278 8011ft 230kts
08-Mar-15 17:09 33.355930 -118.279234 278 8015ft 229kts
08-Mar-15 17:10 33.366087 -118.352974 278 8020ft 229kts
08-Mar-15 17:11 33.379613 -118.427005 306 8004ft 232kts
08-Mar-15 17:12 33.421516 -118.485445 308 8020ft 232kts
08-Mar-15 17:13 33.462873 -118.544601 308 8019ft 231kts
08-Mar-15 17:14 33.504105 -118.603607 308 8019ft 231kts
08-Mar-15 17:15 33.545373 -118.662722 308 8019ft 231kts
08-Mar-15 17:16 33.585297 -118.719990 308 8019ft 231kts
08-Mar-15 17:17 33.626319 -118.778920 308 8063ft 230kts
08-Mar-15 17:18 33.680730 -118.815698 348 7403ft 252kts
08-Mar-15 17:19 33.747744 -118.827138 350 6074ft 243kts
08-Mar-15 17:20 33.813922 -118.839101 349 6022ft 240kts
08-Mar-15 17:21 33.879674 -118.851396 349 6023ft 238kts
08-Mar-15 17:22 33.945062 -118.863748 348 6026ft 238kts
08-Mar-15 17:23 34.009985 -118.876067 348 6032ft 235kts
08-Mar-15 17:24 34.073890 -118.888223 348 6023ft 232kts
08-Mar-15 17:25 34.137565 -118.900353 348 5993ft 230kts
08-Mar-15 17:26 34.193315 -118.910989 348 5986ft 183kts
08-Mar-15 17:27 34.240957 -118.920095 349 6012ft 164kts
08-Mar-15 17:28 34.279843 -118.927522 348 5983ft 130kts
08-Mar-15 17:29 34.312643 -118.904541 45 4817ft 163kts
08-Mar-15 17:30 34.342958 -118.865358 49 3969ft 145kts
08-Mar-15 17:31 34.326223 -118.843835 227 3997ft 125kts
08-Mar-15 17:32 34.309118 -118.879944 241 3992ft 123kts
08-Mar-15 17:33 34.292272 -118.915939 241 3986ft 123kts
08-Mar-15 17:34 34.267957 -118.950505 224 3118ft 155kts
08-Mar-15 17:35 34.238241 -118.984475 225 2377ft 128kts
08-Mar-15 17:36 34.213803 -119.012642 225 2160ft 131kts
08-Mar-15 17:37 34.186070 -119.044710 226 935ft 132kts
08-Mar-15 17:38 34.162573 -119.071844 227 894ft 108kts
08-Mar-15 17:39 34.137722 -119.098155 214 277ft 113kts
08-Mar-15 17:40 34.123660 -119.113024 230 19ft 8kts

Navigation Log

Ident Type
Flight plan parsing failed, navigation log unavailable